sensor_id;sensor_type;location;lat;lon;timestamp;P1;durP1;ratioP1;P2;durP2;ratioP2
53646;SDS011;39550;52.230;5.194;2023-03-19T00:01:20;4.82;;;2.55;;
53646;SDS011;39550;52.230;5.194;2023-03-19T00:03:45;5.32;;;2.50;;
53646;SDS011;39550;52.230;5.194;2023-03-19T00:06:11;4.30;;;2.50;;
53646;SDS011;39550;52.230;5.194;2023-03-19T00:08:37;4.10;;;2.55;;
53646;SDS011;39550;52.230;5.194;2023-03-19T00:11:06;3.90;;;2.55;;
53646;SDS011;39550;52.230;5.194;2023-03-19T00:13:32;4.28;;;2.33;;
53646;SDS011;39550;52.230;5.194;2023-03-19T00:15:57;5.07;;;2.65;;
53646;SDS011;39550;52.230;5.194;2023-03-19T00:18:23;4.28;;;2.50;;
53646;SDS011;39550;52.230;5.194;2023-03-19T00:20:48;4.55;;;2.50;;
53646;SDS011;39550;52.230;5.194;2023-03-19T00:23:13;4.30;;;2.58;;
53646;SDS011;39550;52.230;5.194;2023-03-19T00:25:39;4.72;;;2.67;;
53646;SDS011;39550;52.230;5.194;2023-03-19T00:28:04;4.32;;;2.63;;
53646;SDS011;39550;52.230;5.194;2023-03-19T00:30:30;4.05;;;2.55;;
53646;SDS011;39550;52.230;5.194;2023-03-19T00:32:55;4.20;;;2.42;;
53646;SDS011;39550;52.230;5.194;2023-03-19T00:35:20;4.95;;;2.70;;
53646;SDS011;39550;52.230;5.194;2023-03-19T00:37:46;4.75;;;2.95;;
53646;SDS011;39550;52.230;5.194;2023-03-19T00:40:11;4.75;;;2.50;;
53646;SDS011;39550;52.230;5.194;2023-03-19T00:42:37;3.97;;;2.47;;
53646;SDS011;39550;52.230;5.194;2023-03-19T00:45:02;5.78;;;2.97;;
53646;SDS011;39550;52.230;5.194;2023-03-19T00:47:28;3.95;;;2.50;;
53646;SDS011;39550;52.230;5.194;2023-03-19T00:49:53;3.78;;;2.42;;
53646;SDS011;39550;52.230;5.194;2023-03-19T00:52:18;4.47;;;2.80;;
53646;SDS011;39550;52.230;5.194;2023-03-19T00:54:44;3.60;;;2.20;;
53646;SDS011;39550;52.230;5.194;2023-03-19T00:57:10;4.72;;;2.78;;
53646;SDS011;39550;52.230;5.194;2023-03-19T00:59:35;4.72;;;2.80;;
53646;SDS011;39550;52.230;5.194;2023-03-19T01:02:01;4.47;;;2.60;;
53646;SDS011;39550;52.230;5.194;2023-03-19T01:04:27;4.35;;;2.85;;
53646;SDS011;39550;52.230;5.194;2023-03-19T01:06:52;3.95;;;2.30;;
53646;SDS011;39550;52.230;5.194;2023-03-19T01:09:18;4.20;;;2.85;;
53646;SDS011;39550;52.230;5.194;2023-03-19T01:11:43;5.13;;;2.97;;
53646;SDS011;39550;52.230;5.194;2023-03-19T01:14:08;4.70;;;2.60;;
53646;SDS011;39550;52.230;5.194;2023-03-19T01:16:34;4.22;;;2.83;;
53646;SDS011;39550;52.230;5.194;2023-03-19T01:19:00;4.93;;;2.75;;
53646;SDS011;39550;52.230;5.194;2023-03-19T01:21:26;8.80;;;3.15;;
53646;SDS011;39550;52.230;5.194;2023-03-19T01:23:55;3.80;;;2.45;;
53646;SDS011;39550;52.230;5.194;2023-03-19T01:26:21;4.45;;;3.05;;
53646;SDS011;39550;52.230;5.194;2023-03-19T01:28:46;4.93;;;2.67;;
53646;SDS011;39550;52.230;5.194;2023-03-19T01:31:12;6.90;;;3.35;;
53646;SDS011;39550;52.230;5.194;2023-03-19T01:33:37;5.18;;;2.85;;
53646;SDS011;39550;52.230;5.194;2023-03-19T01:36:03;4.05;;;2.55;;
53646;SDS011;39550;52.230;5.194;2023-03-19T01:38:29;4.40;;;2.92;;
53646;SDS011;39550;52.230;5.194;2023-03-19T01:40:55;4.72;;;3.00;;
53646;SDS011;39550;52.230;5.194;2023-03-19T01:43:22;5.90;;;3.05;;
53646;SDS011;39550;52.230;5.194;2023-03-19T01:48:31;6.60;;;3.20;;
53646;SDS011;39550;52.230;5.194;2023-03-19T01:51:12;5.57;;;3.10;;
53646;SDS011;39550;52.230;5.194;2023-03-19T01:53:40;5.55;;;3.35;;
53646;SDS011;39550;52.230;5.194;2023-03-19T01:56:13;5.35;;;3.20;;
53646;SDS011;39550;52.230;5.194;2023-03-19T01:58:43;5.03;;;3.63;;
53646;SDS011;39550;52.230;5.194;2023-03-19T02:01:12;5.40;;;3.05;;
53646;SDS011;39550;52.230;5.194;2023-03-19T02:03:38;4.75;;;3.00;;
53646;SDS011;39550;52.230;5.194;2023-03-19T02:06:04;5.60;;;3.55;;
53646;SDS011;39550;52.230;5.194;2023-03-19T02:08:30;5.70;;;3.40;;
53646;SDS011;39550;52.230;5.194;2023-03-19T02:10:56;5.30;;;3.30;;
53646;SDS011;39550;52.230;5.194;2023-03-19T02:13:24;4.88;;;3.28;;
53646;SDS011;39550;52.230;5.194;2023-03-19T02:15:51;4.20;;;2.75;;
53646;SDS011;39550;52.230;5.194;2023-03-19T02:18:17;4.78;;;3.20;;
53646;SDS011;39550;52.230;5.194;2023-03-19T02:20:48;4.93;;;3.35;;
53646;SDS011;39550;52.230;5.194;2023-03-19T02:26:20;4.93;;;3.40;;
53646;SDS011;39550;52.230;5.194;2023-03-19T02:28:48;4.68;;;3.13;;
53646;SDS011;39550;52.230;5.194;2023-03-19T02:31:15;5.30;;;3.38;;
53646;SDS011;39550;52.230;5.194;2023-03-19T02:33:42;5.15;;;3.22;;
53646;SDS011;39550;52.230;5.194;2023-03-19T02:36:16;4.53;;;3.38;;
53646;SDS011;39550;52.230;5.194;2023-03-19T02:38:44;5.25;;;3.28;;
53646;SDS011;39550;52.230;5.194;2023-03-19T02:41:10;5.88;;;3.63;;
53646;SDS011;39550;52.230;5.194;2023-03-19T02:43:37;5.35;;;3.53;;
53646;SDS011;39550;52.230;5.194;2023-03-19T02:46:05;5.68;;;3.50;;
53646;SDS011;39550;52.230;5.194;2023-03-19T02:48:33;4.63;;;3.20;;
53646;SDS011;39550;52.230;5.194;2023-03-19T02:51:00;6.63;;;3.85;;
53646;SDS011;39550;52.230;5.194;2023-03-19T02:53:25;4.90;;;3.47;;
53646;SDS011;39550;52.230;5.194;2023-03-19T02:55:51;7.68;;;3.95;;
53646;SDS011;39550;52.230;5.194;2023-03-19T02:58:17;5.70;;;3.60;;
53646;SDS011;39550;52.230;5.194;2023-03-19T03:00:42;4.80;;;3.38;;
53646;SDS011;39550;52.230;5.194;2023-03-19T03:03:09;6.38;;;3.80;;
53646;SDS011;39550;52.230;5.194;2023-03-19T03:05:34;6.45;;;4.40;;
53646;SDS011;39550;52.230;5.194;2023-03-19T03:08:01;5.35;;;3.70;;
53646;SDS011;39550;52.230;5.194;2023-03-19T03:10:28;5.90;;;3.97;;
53646;SDS011;39550;52.230;5.194;2023-03-19T03:12:53;5.90;;;4.13;;
53646;SDS011;39550;52.230;5.194;2023-03-19T03:15:18;5.75;;;3.88;;
53646;SDS011;39550;52.230;5.194;2023-03-19T03:17:45;6.97;;;4.47;;
53646;SDS011;39550;52.230;5.194;2023-03-19T03:20:11;6.65;;;4.65;;
53646;SDS011;39550;52.230;5.194;2023-03-19T03:22:39;6.22;;;4.28;;
53646;SDS011;39550;52.230;5.194;2023-03-19T03:25:05;6.43;;;4.00;;
53646;SDS011;39550;52.230;5.194;2023-03-19T03:27:31;7.35;;;4.43;;
53646;SDS011;39550;52.230;5.194;2023-03-19T03:29:57;7.68;;;4.00;;
53646;SDS011;39550;52.230;5.194;2023-03-19T03:32:23;6.57;;;4.53;;
53646;SDS011;39550;52.230;5.194;2023-03-19T03:34:49;6.90;;;4.88;;
53646;SDS011;39550;52.230;5.194;2023-03-19T03:37:15;5.95;;;4.25;;
53646;SDS011;39550;52.230;5.194;2023-03-19T03:39:41;6.28;;;4.43;;
53646;SDS011;39550;52.230;5.194;2023-03-19T03:42:07;7.05;;;4.20;;
53646;SDS011;39550;52.230;5.194;2023-03-19T03:44:33;7.90;;;5.55;;
53646;SDS011;39550;52.230;5.194;2023-03-19T03:46:59;6.38;;;4.50;;
53646;SDS011;39550;52.230;5.194;2023-03-19T03:49:24;7.22;;;5.03;;
53646;SDS011;39550;52.230;5.194;2023-03-19T03:51:50;6.20;;;4.65;;
53646;SDS011;39550;52.230;5.194;2023-03-19T03:54:16;6.95;;;4.75;;
53646;SDS011;39550;52.230;5.194;2023-03-19T03:56:41;6.95;;;5.30;;
53646;SDS011;39550;52.230;5.194;2023-03-19T03:59:07;6.72;;;5.05;;
53646;SDS011;39550;52.230;5.194;2023-03-19T04:01:33;8.73;;;5.18;;
53646;SDS011;39550;52.230;5.194;2023-03-19T04:03:59;8.00;;;5.10;;
53646;SDS011;39550;52.230;5.194;2023-03-19T04:06:25;7.25;;;5.00;;
53646;SDS011;39550;52.230;5.194;2023-03-19T04:08:51;7.10;;;5.15;;
53646;SDS011;39550;52.230;5.194;2023-03-19T04:11:18;7.63;;;5.18;;
53646;SDS011;39550;52.230;5.194;2023-03-19T04:13:44;8.00;;;5.45;;
53646;SDS011;39550;52.230;5.194;2023-03-19T04:16:09;7.00;;;5.40;;
53646;SDS011;39550;52.230;5.194;2023-03-19T04:18:35;7.70;;;5.32;;
53646;SDS011;39550;52.230;5.194;2023-03-19T04:21:02;7.72;;;5.22;;
53646;SDS011;39550;52.230;5.194;2023-03-19T04:23:31;7.63;;;5.45;;
53646;SDS011;39550;52.230;5.194;2023-03-19T04:25:57;7.32;;;5.22;;
53646;SDS011;39550;52.230;5.194;2023-03-19T04:28:24;7.43;;;5.63;;
53646;SDS011;39550;52.230;5.194;2023-03-19T04:30:49;7.72;;;5.80;;
53646;SDS011;39550;52.230;5.194;2023-03-19T04:33:14;8.60;;;5.90;;
53646;SDS011;39550;52.230;5.194;2023-03-19T04:35:40;7.30;;;5.20;;
53646;SDS011;39550;52.230;5.194;2023-03-19T04:38:05;8.98;;;5.82;;
53646;SDS011;39550;52.230;5.194;2023-03-19T04:40:31;8.70;;;5.90;;
53646;SDS011;39550;52.230;5.194;2023-03-19T04:42:56;7.97;;;5.68;;
53646;SDS011;39550;52.230;5.194;2023-03-19T04:45:22;8.93;;;6.43;;
53646;SDS011;39550;52.230;5.194;2023-03-19T04:47:47;10.10;;;7.05;;
53646;SDS011;39550;52.230;5.194;2023-03-19T04:50:12;8.57;;;5.93;;
53646;SDS011;39550;52.230;5.194;2023-03-19T04:52:38;7.85;;;5.65;;
53646;SDS011;39550;52.230;5.194;2023-03-19T04:55:05;8.40;;;5.85;;
53646;SDS011;39550;52.230;5.194;2023-03-19T04:57:31;9.02;;;5.55;;
53646;SDS011;39550;52.230;5.194;2023-03-19T04:59:57;7.88;;;5.53;;
53646;SDS011;39550;52.230;5.194;2023-03-19T05:02:22;9.35;;;6.53;;
53646;SDS011;39550;52.230;5.194;2023-03-19T05:04:48;8.98;;;6.15;;
53646;SDS011;39550;52.230;5.194;2023-03-19T05:07:13;9.00;;;5.95;;
53646;SDS011;39550;52.230;5.194;2023-03-19T05:09:38;9.45;;;6.72;;
53646;SDS011;39550;52.230;5.194;2023-03-19T05:12:04;9.10;;;6.72;;
53646;SDS011;39550;52.230;5.194;2023-03-19T05:14:30;8.63;;;6.35;;
53646;SDS011;39550;52.230;5.194;2023-03-19T05:16:56;9.35;;;6.30;;
53646;SDS011;39550;52.230;5.194;2023-03-19T05:19:21;8.20;;;6.18;;
53646;SDS011;39550;52.230;5.194;2023-03-19T05:21:47;8.75;;;6.30;;
53646;SDS011;39550;52.230;5.194;2023-03-19T05:24:12;11.50;;;7.13;;
53646;SDS011;39550;52.230;5.194;2023-03-19T05:26:37;8.05;;;6.20;;
53646;SDS011;39550;52.230;5.194;2023-03-19T05:29:03;8.82;;;6.35;;
53646;SDS011;39550;52.230;5.194;2023-03-19T05:31:29;8.77;;;6.55;;
53646;SDS011;39550;52.230;5.194;2023-03-19T05:33:54;9.68;;;6.47;;
53646;SDS011;39550;52.230;5.194;2023-03-19T05:36:20;8.50;;;6.43;;
53646;SDS011;39550;52.230;5.194;2023-03-19T05:38:45;10.65;;;7.35;;
53646;SDS011;39550;52.230;5.194;2023-03-19T05:41:10;9.80;;;6.68;;
53646;SDS011;39550;52.230;5.194;2023-03-19T05:43:36;9.48;;;6.50;;
53646;SDS011;39550;52.230;5.194;2023-03-19T05:46:01;10.65;;;7.10;;
53646;SDS011;39550;52.230;5.194;2023-03-19T05:48:27;10.45;;;7.45;;
53646;SDS011;39550;52.230;5.194;2023-03-19T05:50:52;10.00;;;7.07;;
53646;SDS011;39550;52.230;5.194;2023-03-19T05:53:18;9.43;;;6.70;;
53646;SDS011;39550;52.230;5.194;2023-03-19T05:55:44;9.63;;;7.22;;
53646;SDS011;39550;52.230;5.194;2023-03-19T05:58:09;11.10;;;7.97;;
53646;SDS011;39550;52.230;5.194;2023-03-19T06:00:35;11.02;;;7.93;;
53646;SDS011;39550;52.230;5.194;2023-03-19T06:03:01;11.15;;;7.70;;
53646;SDS011;39550;52.230;5.194;2023-03-19T06:05:26;11.25;;;8.02;;
53646;SDS011;39550;52.230;5.194;2023-03-19T06:07:52;10.98;;;7.97;;
53646;SDS011;39550;52.230;5.194;2023-03-19T06:10:17;11.32;;;8.32;;
53646;SDS011;39550;52.230;5.194;2023-03-19T06:12:42;13.23;;;8.57;;
53646;SDS011;39550;52.230;5.194;2023-03-19T06:15:08;10.68;;;7.80;;
53646;SDS011;39550;52.230;5.194;2023-03-19T06:17:34;13.50;;;8.98;;
53646;SDS011;39550;52.230;5.194;2023-03-19T06:20:00;12.75;;;8.32;;
53646;SDS011;39550;52.230;5.194;2023-03-19T06:22:25;12.25;;;8.07;;
53646;SDS011;39550;52.230;5.194;2023-03-19T06:24:51;10.90;;;8.95;;
53646;SDS011;39550;52.230;5.194;2023-03-19T06:27:16;13.95;;;9.00;;
53646;SDS011;39550;52.230;5.194;2023-03-19T06:29:42;13.38;;;9.43;;
53646;SDS011;39550;52.230;5.194;2023-03-19T06:32:07;12.93;;;9.35;;
53646;SDS011;39550;52.230;5.194;2023-03-19T06:34:33;13.30;;;9.95;;
53646;SDS011;39550;52.230;5.194;2023-03-19T06:36:59;13.25;;;10.23;;
53646;SDS011;39550;52.230;5.194;2023-03-19T06:41:59;14.82;;;10.40;;
53646;SDS011;39550;52.230;5.194;2023-03-19T06:44:25;13.77;;;10.23;;
53646;SDS011;39550;52.230;5.194;2023-03-19T06:46:51;14.43;;;10.35;;
53646;SDS011;39550;52.230;5.194;2023-03-19T06:49:16;14.05;;;10.05;;
53646;SDS011;39550;52.230;5.194;2023-03-19T06:51:42;15.05;;;10.70;;
53646;SDS011;39550;52.230;5.194;2023-03-19T06:54:07;17.58;;;11.10;;
53646;SDS011;39550;52.230;5.194;2023-03-19T06:56:32;13.77;;;10.23;;
53646;SDS011;39550;52.230;5.194;2023-03-19T06:58:58;14.57;;;10.43;;
53646;SDS011;39550;52.230;5.194;2023-03-19T07:01:23;14.88;;;10.85;;
53646;SDS011;39550;52.230;5.194;2023-03-19T07:03:49;16.42;;;11.07;;
53646;SDS011;39550;52.230;5.194;2023-03-19T07:06:14;15.90;;;11.07;;
53646;SDS011;39550;52.230;5.194;2023-03-19T07:08:39;17.05;;;12.48;;
53646;SDS011;39550;52.230;5.194;2023-03-19T07:11:10;17.52;;;11.63;;
53646;SDS011;39550;52.230;5.194;2023-03-19T07:13:36;16.13;;;12.25;;
53646;SDS011;39550;52.230;5.194;2023-03-19T07:16:02;16.77;;;12.35;;
53646;SDS011;39550;52.230;5.194;2023-03-19T07:18:27;16.70;;;12.18;;
53646;SDS011;39550;52.230;5.194;2023-03-19T07:20:53;15.45;;;11.57;;
53646;SDS011;39550;52.230;5.194;2023-03-19T07:23:18;16.58;;;12.07;;
53646;SDS011;39550;52.230;5.194;2023-03-19T07:25:43;16.50;;;12.65;;
53646;SDS011;39550;52.230;5.194;2023-03-19T07:28:11;17.23;;;12.43;;
53646;SDS011;39550;52.230;5.194;2023-03-19T07:30:36;16.77;;;12.77;;
53646;SDS011;39550;52.230;5.194;2023-03-19T07:33:02;18.27;;;13.15;;
53646;SDS011;39550;52.230;5.194;2023-03-19T07:35:28;18.13;;;12.75;;
53646;SDS011;39550;52.230;5.194;2023-03-19T07:37:53;18.38;;;13.57;;
53646;SDS011;39550;52.230;5.194;2023-03-19T07:40:19;18.08;;;13.35;;
53646;SDS011;39550;52.230;5.194;2023-03-19T07:42:44;18.13;;;12.55;;
53646;SDS011;39550;52.230;5.194;2023-03-19T07:45:10;20.50;;;14.10;;
53646;SDS011;39550;52.230;5.194;2023-03-19T07:47:36;20.65;;;14.57;;
53646;SDS011;39550;52.230;5.194;2023-03-19T07:50:01;19.55;;;12.90;;
53646;SDS011;39550;52.230;5.194;2023-03-19T07:52:27;19.88;;;13.90;;
53646;SDS011;39550;52.230;5.194;2023-03-19T07:54:53;17.63;;;13.80;;
53646;SDS011;39550;52.230;5.194;2023-03-19T07:57:19;19.23;;;14.23;;
53646;SDS011;39550;52.230;5.194;2023-03-19T07:59:44;20.17;;;14.48;;
53646;SDS011;39550;52.230;5.194;2023-03-19T08:02:10;21.77;;;14.82;;
53646;SDS011;39550;52.230;5.194;2023-03-19T08:04:36;20.25;;;14.20;;
53646;SDS011;39550;52.230;5.194;2023-03-19T08:07:02;19.95;;;14.05;;
53646;SDS011;39550;52.230;5.194;2023-03-19T08:09:27;21.27;;;14.27;;
53646;SDS011;39550;52.230;5.194;2023-03-19T08:11:52;20.95;;;14.48;;
53646;SDS011;39550;52.230;5.194;2023-03-19T08:14:18;18.25;;;13.60;;
53646;SDS011;39550;52.230;5.194;2023-03-19T08:16:46;20.15;;;13.82;;
53646;SDS011;39550;52.230;5.194;2023-03-19T08:19:12;20.55;;;13.95;;
53646;SDS011;39550;52.230;5.194;2023-03-19T08:21:38;19.98;;;13.75;;
53646;SDS011;39550;52.230;5.194;2023-03-19T08:24:03;19.10;;;13.95;;
53646;SDS011;39550;52.230;5.194;2023-03-19T08:26:29;20.23;;;14.48;;
53646;SDS011;39550;52.230;5.194;2023-03-19T08:28:56;20.27;;;14.18;;
53646;SDS011;39550;52.230;5.194;2023-03-19T08:31:22;19.88;;;14.52;;
53646;SDS011;39550;52.230;5.194;2023-03-19T08:33:47;19.88;;;14.38;;
53646;SDS011;39550;52.230;5.194;2023-03-19T08:36:12;19.13;;;14.52;;
53646;SDS011;39550;52.230;5.194;2023-03-19T08:38:38;20.50;;;14.15;;
53646;SDS011;39550;52.230;5.194;2023-03-19T08:41:04;19.08;;;13.27;;
53646;SDS011;39550;52.230;5.194;2023-03-19T08:43:30;19.33;;;14.15;;
53646;SDS011;39550;52.230;5.194;2023-03-19T08:45:57;20.83;;;13.95;;
53646;SDS011;39550;52.230;5.194;2023-03-19T08:48:23;19.58;;;14.10;;
53646;SDS011;39550;52.230;5.194;2023-03-19T08:50:55;20.70;;;13.73;;
53646;SDS011;39550;52.230;5.194;2023-03-19T08:53:21;20.48;;;14.95;;
53646;SDS011;39550;52.230;5.194;2023-03-19T08:55:51;20.00;;;14.50;;
53646;SDS011;39550;52.230;5.194;2023-03-19T08:58:23;19.73;;;13.77;;
53646;SDS011;39550;52.230;5.194;2023-03-19T09:00:50;19.45;;;13.48;;
53646;SDS011;39550;52.230;5.194;2023-03-19T09:03:17;19.13;;;13.45;;
53646;SDS011;39550;52.230;5.194;2023-03-19T09:05:43;18.88;;;14.02;;
53646;SDS011;39550;52.230;5.194;2023-03-19T09:08:09;19.30;;;14.60;;
53646;SDS011;39550;52.230;5.194;2023-03-19T09:10:35;19.52;;;13.98;;
53646;SDS011;39550;52.230;5.194;2023-03-19T09:13:01;19.05;;;12.88;;
53646;SDS011;39550;52.230;5.194;2023-03-19T09:15:26;21.77;;;15.70;;
53646;SDS011;39550;52.230;5.194;2023-03-19T09:17:52;20.63;;;14.75;;
53646;SDS011;39550;52.230;5.194;2023-03-19T09:20:17;21.88;;;14.27;;
53646;SDS011;39550;52.230;5.194;2023-03-19T09:22:43;20.15;;;14.35;;
53646;SDS011;39550;52.230;5.194;2023-03-19T09:25:08;18.80;;;12.88;;
53646;SDS011;39550;52.230;5.194;2023-03-19T09:27:33;20.52;;;14.15;;
53646;SDS011;39550;52.230;5.194;2023-03-19T09:29:59;20.85;;;14.32;;
53646;SDS011;39550;52.230;5.194;2023-03-19T09:32:24;19.23;;;13.95;;
53646;SDS011;39550;52.230;5.194;2023-03-19T09:34:50;22.38;;;14.52;;
53646;SDS011;39550;52.230;5.194;2023-03-19T09:37:15;21.92;;;14.70;;
53646;SDS011;39550;52.230;5.194;2023-03-19T09:39:40;19.02;;;13.85;;
53646;SDS011;39550;52.230;5.194;2023-03-19T09:44:51;20.45;;;13.82;;
53646;SDS011;39550;52.230;5.194;2023-03-19T09:50:22;21.92;;;14.85;;
53646;SDS011;39550;52.230;5.194;2023-03-19T09:52:49;22.35;;;15.13;;
53646;SDS011;39550;52.230;5.194;2023-03-19T09:57:47;19.52;;;13.50;;
53646;SDS011;39550;52.230;5.194;2023-03-19T10:00:33;20.73;;;14.50;;
53646;SDS011;39550;52.230;5.194;2023-03-19T10:14:47;21.50;;;14.02;;
53646;SDS011;39550;52.230;5.194;2023-03-19T10:17:36;20.20;;;14.02;;
53646;SDS011;39550;52.230;5.194;2023-03-19T10:23:13;20.13;;;13.88;;
53646;SDS011;39550;52.230;5.194;2023-03-19T10:26:04;18.92;;;12.85;;
53646;SDS011;39550;52.230;5.194;2023-03-19T10:28:34;19.05;;;13.50;;
53646;SDS011;39550;52.230;5.194;2023-03-19T10:31:06;20.48;;;14.75;;
53646;SDS011;39550;52.230;5.194;2023-03-19T10:33:38;17.70;;;12.93;;
53646;SDS011;39550;52.230;5.194;2023-03-19T10:36:06;20.73;;;14.20;;
53646;SDS011;39550;52.230;5.194;2023-03-19T10:38:38;21.17;;;13.52;;
53646;SDS011;39550;52.230;5.194;2023-03-19T10:43:56;19.55;;;13.27;;
53646;SDS011;39550;52.230;5.194;2023-03-19T10:46:25;18.42;;;12.95;;
53646;SDS011;39550;52.230;5.194;2023-03-19T10:48:50;19.65;;;13.15;;
53646;SDS011;39550;52.230;5.194;2023-03-19T10:51:17;20.30;;;14.32;;
53646;SDS011;39550;52.230;5.194;2023-03-19T10:53:46;21.05;;;14.70;;
53646;SDS011;39550;52.230;5.194;2023-03-19T10:58:58;18.80;;;13.70;;
53646;SDS011;39550;52.230;5.194;2023-03-19T11:04:00;20.10;;;12.80;;
53646;SDS011;39550;52.230;5.194;2023-03-19T11:06:36;19.30;;;12.80;;
53646;SDS011;39550;52.230;5.194;2023-03-19T11:09:25;18.45;;;12.88;;
53646;SDS011;39550;52.230;5.194;2023-03-19T11:11:52;19.70;;;13.90;;
53646;SDS011;39550;52.230;5.194;2023-03-19T11:14:38;19.90;;;13.55;;
53646;SDS011;39550;52.230;5.194;2023-03-19T11:19:42;19.42;;;13.40;;
53646;SDS011;39550;52.230;5.194;2023-03-19T11:22:16;22.15;;;13.38;;
53646;SDS011;39550;52.230;5.194;2023-03-19T11:25:13;19.98;;;12.65;;
53646;SDS011;39550;52.230;5.194;2023-03-19T11:27:43;20.48;;;12.73;;
53646;SDS011;39550;52.230;5.194;2023-03-19T11:30:21;19.73;;;12.35;;
53646;SDS011;39550;52.230;5.194;2023-03-19T11:35:25;20.02;;;13.40;;
53646;SDS011;39550;52.230;5.194;2023-03-19T11:38:00;19.67;;;12.15;;
53646;SDS011;39550;52.230;5.194;2023-03-19T11:48:51;18.05;;;13.00;;
53646;SDS011;39550;52.230;5.194;2023-03-19T11:51:22;21.25;;;13.32;;
53646;SDS011;39550;52.230;5.194;2023-03-19T11:56:47;18.35;;;11.68;;
53646;SDS011;39550;52.230;5.194;2023-03-19T12:15:59;19.63;;;12.27;;
53646;SDS011;39550;52.230;5.194;2023-03-19T12:24:17;20.70;;;13.38;;
53646;SDS011;39550;52.230;5.194;2023-03-19T12:27:23;21.33;;;12.95;;
53646;SDS011;39550;52.230;5.194;2023-03-19T12:29:47;21.05;;;13.38;;
53646;SDS011;39550;52.230;5.194;2023-03-19T12:35:15;20.67;;;13.07;;
53646;SDS011;39550;52.230;5.194;2023-03-19T12:37:57;21.17;;;12.50;;
53646;SDS011;39550;52.230;5.194;2023-03-19T12:40:47;23.42;;;13.85;;
53646;SDS011;39550;52.230;5.194;2023-03-19T12:45:51;19.08;;;12.30;;
53646;SDS011;39550;52.230;5.194;2023-03-19T12:51:08;21.38;;;13.38;;
53646;SDS011;39550;52.230;5.194;2023-03-19T12:53:51;21.10;;;13.00;;
53646;SDS011;39550;52.230;5.194;2023-03-19T12:59:12;21.95;;;12.98;;
53646;SDS011;39550;52.230;5.194;2023-03-19T13:01:46;21.17;;;12.63;;
53646;SDS011;39550;52.230;5.194;2023-03-19T13:09:23;20.75;;;13.10;;
53646;SDS011;39550;52.230;5.194;2023-03-19T13:14:24;22.63;;;13.05;;
53646;SDS011;39550;52.230;5.194;2023-03-19T13:19:46;25.67;;;16.73;;
53646;SDS011;39550;52.230;5.194;2023-03-19T13:22:18;33.90;;;19.63;;
53646;SDS011;39550;52.230;5.194;2023-03-19T13:24:46;30.35;;;18.40;;
53646;SDS011;39550;52.230;5.194;2023-03-19T13:27:34;33.50;;;20.48;;
53646;SDS011;39550;52.230;5.194;2023-03-19T13:32:42;37.45;;;21.60;;
53646;SDS011;39550;52.230;5.194;2023-03-19T13:35:16;34.13;;;21.30;;
53646;SDS011;39550;52.230;5.194;2023-03-19T13:37:56;33.47;;;20.35;;
53646;SDS011;39550;52.230;5.194;2023-03-19T13:43:02;30.13;;;19.35;;
53646;SDS011;39550;52.230;5.194;2023-03-19T13:47:59;32.65;;;19.73;;
53646;SDS011;39550;52.230;5.194;2023-03-19T13:50:59;36.80;;;20.20;;
53646;SDS011;39550;52.230;5.194;2023-03-19T13:55:53;32.97;;;19.08;;
53646;SDS011;39550;52.230;5.194;2023-03-19T13:58:23;30.92;;;19.15;;
53646;SDS011;39550;52.230;5.194;2023-03-19T14:01:10;34.30;;;20.42;;
53646;SDS011;39550;52.230;5.194;2023-03-19T14:03:55;32.88;;;19.85;;
53646;SDS011;39550;52.230;5.194;2023-03-19T14:09:04;31.77;;;19.75;;
53646;SDS011;39550;52.230;5.194;2023-03-19T14:11:32;32.40;;;20.00;;
53646;SDS011;39550;52.230;5.194;2023-03-19T14:14:01;31.92;;;18.70;;
53646;SDS011;39550;52.230;5.194;2023-03-19T14:16:36;33.28;;;20.30;;
53646;SDS011;39550;52.230;5.194;2023-03-19T14:19:10;30.45;;;18.40;;
53646;SDS011;39550;52.230;5.194;2023-03-19T14:21:42;31.15;;;19.60;;
53646;SDS011;39550;52.230;5.194;2023-03-19T14:24:28;31.13;;;18.95;;
53646;SDS011;39550;52.230;5.194;2023-03-19T14:27:16;32.95;;;19.73;;
53646;SDS011;39550;52.230;5.194;2023-03-19T14:29:51;31.88;;;18.70;;
53646;SDS011;39550;52.230;5.194;2023-03-19T14:32:21;28.20;;;18.77;;
53646;SDS011;39550;52.230;5.194;2023-03-19T14:34:52;29.92;;;18.00;;
53646;SDS011;39550;52.230;5.194;2023-03-19T14:37:22;30.58;;;18.05;;
53646;SDS011;39550;52.230;5.194;2023-03-19T14:45:30;34.25;;;17.58;;
53646;SDS011;39550;52.230;5.194;2023-03-19T14:54:11;30.67;;;18.27;;
53646;SDS011;39550;52.230;5.194;2023-03-19T14:56:52;30.15;;;18.35;;
53646;SDS011;39550;52.230;5.194;2023-03-19T14:59:20;28.00;;;17.50;;
53646;SDS011;39550;52.230;5.194;2023-03-19T15:01:48;28.70;;;17.30;;
53646;SDS011;39550;52.230;5.194;2023-03-19T15:04:16;25.58;;;17.48;;
53646;SDS011;39550;52.230;5.194;2023-03-19T15:06:56;29.35;;;19.02;;
53646;SDS011;39550;52.230;5.194;2023-03-19T15:09:28;28.08;;;16.92;;
53646;SDS011;39550;52.230;5.194;2023-03-19T15:12:05;26.38;;;16.33;;
53646;SDS011;39550;52.230;5.194;2023-03-19T15:17:34;28.83;;;17.52;;
53646;SDS011;39550;52.230;5.194;2023-03-19T15:20:12;28.40;;;18.63;;
53646;SDS011;39550;52.230;5.194;2023-03-19T15:22:54;29.42;;;17.67;;
53646;SDS011;39550;52.230;5.194;2023-03-19T15:25:23;28.35;;;17.65;;
53646;SDS011;39550;52.230;5.194;2023-03-19T15:28:05;29.90;;;18.45;;
53646;SDS011;39550;52.230;5.194;2023-03-19T15:30:32;25.75;;;16.80;;
53646;SDS011;39550;52.230;5.194;2023-03-19T15:32:58;31.60;;;16.88;;
53646;SDS011;39550;52.230;5.194;2023-03-19T15:35:25;32.60;;;18.38;;
53646;SDS011;39550;52.230;5.194;2023-03-19T15:37:54;28.60;;;18.08;;
53646;SDS011;39550;52.230;5.194;2023-03-19T15:40:24;24.58;;;16.83;;
53646;SDS011;39550;52.230;5.194;2023-03-19T15:42:54;27.60;;;17.55;;
53646;SDS011;39550;52.230;5.194;2023-03-19T15:45:22;28.42;;;18.15;;
53646;SDS011;39550;52.230;5.194;2023-03-19T15:47:54;29.75;;;17.55;;
53646;SDS011;39550;52.230;5.194;2023-03-19T15:50:26;26.88;;;16.90;;
53646;SDS011;39550;52.230;5.194;2023-03-19T15:55:23;27.20;;;18.15;;
53646;SDS011;39550;52.230;5.194;2023-03-19T15:57:50;26.88;;;16.85;;
53646;SDS011;39550;52.230;5.194;2023-03-19T16:00:18;27.92;;;18.13;;
53646;SDS011;39550;52.230;5.194;2023-03-19T16:02:45;25.33;;;16.25;;
53646;SDS011;39550;52.230;5.194;2023-03-19T16:05:26;24.67;;;16.25;;
53646;SDS011;39550;52.230;5.194;2023-03-19T16:07:54;30.13;;;18.23;;
53646;SDS011;39550;52.230;5.194;2023-03-19T16:12:52;26.45;;;16.83;;
53646;SDS011;39550;52.230;5.194;2023-03-19T16:15:32;26.95;;;18.13;;
53646;SDS011;39550;52.230;5.194;2023-03-19T16:20:40;27.25;;;17.30;;
53646;SDS011;39550;52.230;5.194;2023-03-19T16:23:08;24.90;;;16.77;;
53646;SDS011;39550;52.230;5.194;2023-03-19T16:25:38;27.13;;;18.60;;
53646;SDS011;39550;52.230;5.194;2023-03-19T16:28:04;29.52;;;17.33;;
53646;SDS011;39550;52.230;5.194;2023-03-19T16:30:40;29.17;;;17.52;;
53646;SDS011;39550;52.230;5.194;2023-03-19T16:33:10;29.83;;;18.20;;
53646;SDS011;39550;52.230;5.194;2023-03-19T16:35:38;26.90;;;17.40;;
53646;SDS011;39550;52.230;5.194;2023-03-19T16:38:16;26.55;;;16.88;;
53646;SDS011;39550;52.230;5.194;2023-03-19T16:40:47;32.78;;;17.90;;
53646;SDS011;39550;52.230;5.194;2023-03-19T16:43:32;25.50;;;17.10;;
53646;SDS011;39550;52.230;5.194;2023-03-19T16:46:04;24.52;;;16.92;;
53646;SDS011;39550;52.230;5.194;2023-03-19T16:48:32;23.73;;;16.90;;
53646;SDS011;39550;52.230;5.194;2023-03-19T16:50:58;25.20;;;17.50;;
53646;SDS011;39550;52.230;5.194;2023-03-19T16:55:54;25.33;;;15.77;;
53646;SDS011;39550;52.230;5.194;2023-03-19T16:58:28;23.42;;;15.77;;